createdAt,value
2023-01-25T00:01:07.552Z,71.10
2023-01-25T00:03:34.729Z,71.10
2023-01-25T00:06:02.041Z,71.10
2023-01-25T00:08:28.969Z,71.10
2023-01-25T00:10:58.239Z,71.20
2023-01-25T00:13:26.815Z,71.20
2023-01-25T00:15:53.740Z,71.20
2023-01-25T00:18:21.306Z,71.10
2023-01-25T00:20:48.275Z,71.10
2023-01-25T00:23:15.382Z,71.10
2023-01-25T00:25:42.469Z,71.10
2023-01-25T00:28:09.380Z,71.10
2023-01-25T00:30:36.323Z,71.10
2023-01-25T00:33:53.466Z,71.00
2023-01-25T00:36:36.915Z,71.00
2023-01-25T00:39:06.218Z,71.20
2023-01-25T00:41:33.306Z,71.20
2023-01-25T00:44:00.307Z,71.30
2023-01-25T00:46:27.404Z,71.30
2023-01-25T00:48:55.371Z,71.40
2023-01-25T00:51:24.047Z,71.40
2023-01-25T00:53:51.487Z,71.30
2023-01-25T00:56:18.926Z,71.20
2023-01-25T00:58:45.921Z,71.20
2023-01-25T01:01:13.657Z,71.20
2023-01-25T01:03:40.818Z,71.20
2023-01-25T01:06:12.008Z,71.30
2023-01-25T01:08:41.010Z,71.20
2023-01-25T01:11:11.633Z,71.30
2023-01-25T01:13:39.882Z,71.40
2023-01-25T01:16:14.012Z,71.40
2023-01-25T01:18:45.418Z,71.50
2023-01-25T01:21:13.725Z,71.50
2023-01-25T01:23:41.328Z,71.50
2023-01-25T01:26:13.745Z,71.50
2023-01-25T01:28:40.931Z,71.50
2023-01-25T01:31:18.877Z,71.30
2023-01-25T01:33:56.921Z,71.40
2023-01-25T01:36:27.384Z,71.50
2023-01-25T01:38:54.719Z,71.40
2023-01-25T01:41:22.266Z,71.40
2023-01-25T01:43:50.265Z,71.40
2023-01-25T01:46:31.881Z,71.50
2023-01-25T01:49:17.525Z,71.50
2023-01-25T01:52:11.101Z,71.60
2023-01-25T01:54:53.590Z,71.60
2023-01-25T01:57:25.928Z,71.50
2023-01-25T02:00:00.600Z,71.50
2023-01-25T02:02:27.814Z,71.30
2023-01-25T02:05:00.141Z,71.30
2023-01-25T02:07:37.751Z,71.30
2023-01-25T02:10:08.241Z,71.40
2023-01-25T02:12:37.367Z,71.50
2023-01-25T02:15:06.840Z,71.50
2023-01-25T02:17:39.846Z,71.50
2023-01-25T02:20:41.263Z,72.20
2023-01-25T02:23:37.194Z,71.60
2023-01-25T02:26:06.569Z,71.40
2023-01-25T02:28:41.584Z,71.40
2023-01-25T02:31:09.008Z,71.40
2023-01-25T02:33:36.952Z,71.60
2023-01-25T02:36:07.525Z,71.60
2023-01-25T02:38:50.486Z,71.50
2023-01-25T02:41:28.280Z,71.60
2023-01-25T02:43:55.251Z,71.50
2023-01-25T02:46:28.623Z,71.60
2023-01-25T02:48:56.574Z,71.60
2023-01-25T02:51:26.970Z,71.70
2023-01-25T02:53:56.042Z,71.70
2023-01-25T02:56:23.617Z,71.70
2023-01-25T02:58:51.107Z,71.70
2023-01-25T03:01:20.301Z,71.60
2023-01-25T03:03:47.426Z,71.60
2023-01-25T03:06:14.629Z,71.70
2023-01-25T03:08:43.404Z,71.70
2023-01-25T03:11:10.680Z,71.70
2023-01-25T03:13:38.157Z,71.80
2023-01-25T03:16:09.426Z,71.80
2023-01-25T03:18:37.356Z,71.70
2023-01-25T03:21:17.445Z,71.60
2023-01-25T03:23:47.441Z,71.70
2023-01-25T03:26:21.986Z,71.80
2023-01-25T03:29:14.031Z,71.90
2023-01-25T03:31:43.821Z,72.00
2023-01-25T03:34:10.866Z,72.00
2023-01-25T03:36:41.139Z,72.10
2023-01-25T03:39:08.247Z,72.20
2023-01-25T03:41:40.159Z,72.20
2023-01-25T03:44:11.450Z,72.20
2023-01-25T03:46:40.709Z,72.10
2023-01-25T03:49:08.601Z,72.10
2023-01-25T03:51:35.898Z,72.10
2023-01-25T03:54:03.420Z,72.10
2023-01-25T03:56:30.583Z,72.20
2023-01-25T03:59:04.572Z,72.10
2023-01-25T04:01:32.832Z,72.20
2023-01-25T04:04:00.259Z,72.20
2023-01-25T04:06:27.653Z,72.20
2023-01-25T04:08:54.745Z,72.20
2023-01-25T04:11:24.570Z,72.20
2023-01-25T04:13:51.806Z,72.20
2023-01-25T04:16:21.134Z,72.20
2023-01-25T04:19:20.266Z,72.20
2023-01-25T04:21:47.341Z,72.20
2023-01-25T04:24:14.808Z,72.20
2023-01-25T04:26:44.073Z,72.30
2023-01-25T04:29:12.915Z,72.20
2023-01-25T04:31:40.268Z,72.20
2023-01-25T04:34:07.159Z,72.20
2023-01-25T04:36:34.218Z,72.20
2023-01-25T04:39:02.363Z,72.40
2023-01-25T04:41:29.415Z,72.60
2023-01-25T04:43:57.509Z,72.70
2023-01-25T04:46:25.532Z,72.90
2023-01-25T04:48:53.644Z,72.90
2023-01-25T04:51:21.314Z,72.80
2023-01-25T04:53:48.257Z,72.90
2023-01-25T04:56:15.391Z,72.90
2023-01-25T04:58:50.685Z,73.00
2023-01-25T05:01:17.618Z,73.10
2023-01-25T05:03:44.683Z,73.20
2023-01-25T05:06:23.979Z,73.20
2023-01-25T05:08:51.243Z,73.30
2023-01-25T05:11:18.418Z,73.30
2023-01-25T05:14:11.356Z,73.30
2023-01-25T05:16:38.571Z,73.30
2023-01-25T05:19:12.276Z,73.40
2023-01-25T05:21:58.715Z,73.40
2023-01-25T05:24:32.242Z,73.50
2023-01-25T05:27:03.889Z,74.30
2023-01-25T05:29:49.028Z,73.70
2023-01-25T05:32:20.488Z,73.70
2023-01-25T05:34:48.339Z,73.80
2023-01-25T05:37:19.275Z,73.90
2023-01-25T05:39:48.298Z,73.90
2023-01-25T05:42:18.592Z,73.90
2023-01-25T05:44:47.925Z,74.00
2023-01-25T05:47:18.045Z,73.90
2023-01-25T05:49:45.309Z,73.80
2023-01-25T05:52:20.032Z,73.80
2023-01-25T05:54:47.058Z,73.90
2023-01-25T05:57:16.221Z,74.00
2023-01-25T05:59:43.408Z,74.20
2023-01-25T06:02:12.611Z,75.00
2023-01-25T06:04:41.043Z,74.40
2023-01-25T06:07:09.818Z,74.50
2023-01-25T06:09:37.366Z,74.60
2023-01-25T06:12:06.398Z,74.60
2023-01-25T06:14:33.597Z,74.80
2023-01-25T06:17:02.436Z,74.80
2023-01-25T06:19:32.077Z,74.80
2023-01-25T06:22:09.468Z,74.80
2023-01-25T06:24:36.558Z,74.80
2023-01-25T06:27:03.733Z,74.90
2023-01-25T06:29:30.713Z,75.00
2023-01-25T06:31:58.153Z,75.00
2023-01-25T06:34:25.095Z,75.00
2023-01-25T06:36:53.236Z,75.00
2023-01-25T06:39:20.293Z,75.00
2023-01-25T06:41:47.525Z,75.00
2023-01-25T06:44:14.637Z,75.10
2023-01-25T06:46:41.743Z,75.10
2023-01-25T06:49:10.659Z,75.20
2023-01-25T06:51:37.691Z,75.10
2023-01-25T06:54:04.753Z,75.00
2023-01-25T06:56:32.848Z,75.00
2023-01-25T06:58:59.829Z,75.80
2023-01-25T07:01:27.511Z,75.20
2023-01-25T07:03:58.248Z,75.20
2023-01-25T07:06:27.320Z,75.20
2023-01-25T07:08:54.645Z,75.30
2023-01-25T07:11:21.545Z,75.40
2023-01-25T07:13:48.829Z,75.40
2023-01-25T07:16:20.083Z,75.50
2023-01-25T07:18:47.879Z,76.20
2023-01-25T07:21:21.318Z,75.50
2023-01-25T07:23:50.320Z,75.50
2023-01-25T07:26:19.813Z,75.50
2023-01-25T07:28:48.490Z,75.50
2023-01-25T07:31:18.097Z,75.60
2023-01-25T07:33:53.300Z,76.40
2023-01-25T07:36:21.679Z,75.80
2023-01-25T07:38:54.813Z,75.70
2023-01-25T07:41:22.850Z,75.80
2023-01-25T07:43:52.155Z,75.70
2023-01-25T07:46:38.277Z,75.70
2023-01-25T07:49:05.318Z,75.80
2023-01-25T07:51:32.412Z,75.50
2023-01-25T07:54:03.191Z,75.60
2023-01-25T07:56:37.922Z,75.70
2023-01-25T07:59:08.151Z,75.80
2023-01-25T08:01:37.322Z,75.90
2023-01-25T08:04:05.440Z,75.90
2023-01-25T08:06:38.670Z,76.00
2023-01-25T08:09:17.421Z,76.10
2023-01-25T08:11:44.411Z,76.30
2023-01-25T08:14:11.899Z,76.40
2023-01-25T08:16:38.843Z,76.40
2023-01-25T08:19:05.883Z,76.50
2023-01-25T08:21:34.925Z,76.60
2023-01-25T08:24:07.760Z,76.60
2023-01-25T08:26:35.948Z,76.70
2023-01-25T08:29:04.001Z,76.80
2023-01-25T08:31:34.023Z,77.00
2023-01-25T08:34:02.056Z,77.20
2023-01-25T08:36:29.413Z,77.20
2023-01-25T08:39:00.452Z,77.20
2023-01-25T08:41:29.980Z,77.20
2023-01-25T08:43:57.271Z,77.30
2023-01-25T08:46:29.375Z,77.40
2023-01-25T08:48:58.302Z,77.50
2023-01-25T08:51:26.242Z,77.40
2023-01-25T08:53:53.727Z,77.30
2023-01-25T08:56:21.412Z,77.40
2023-01-25T08:58:50.128Z,77.50
2023-01-25T09:01:19.865Z,77.50
2023-01-25T09:03:50.309Z,77.50
2023-01-25T09:06:19.606Z,77.40
2023-01-25T09:08:46.958Z,77.50
2023-01-25T09:11:20.369Z,77.40
2023-01-25T09:13:48.880Z,77.50
2023-01-25T09:16:20.566Z,77.40
2023-01-25T09:18:49.821Z,77.20
2023-01-25T09:21:19.124Z,77.30
2023-01-25T09:23:51.229Z,77.40
2023-01-25T09:26:32.490Z,77.60
2023-01-25T09:29:00.049Z,77.60
2023-01-25T09:31:30.406Z,77.90
2023-01-25T09:34:16.914Z,77.80
2023-01-25T09:36:44.574Z,77.80
2023-01-25T09:39:14.801Z,77.90
2023-01-25T09:42:06.743Z,77.90
2023-01-25T09:45:11.382Z,78.10
2023-01-25T09:47:56.025Z,78.10
2023-01-25T09:50:42.835Z,78.30
2023-01-25T09:53:35.865Z,78.40
2023-01-25T09:56:20.615Z,78.40
2023-01-25T09:58:51.557Z,78.30
2023-01-25T10:01:38.185Z,78.30
2023-01-25T10:04:19.187Z,78.30
2023-01-25T10:07:00.219Z,78.30
2023-01-25T10:09:53.650Z,78.20
2023-01-25T10:12:24.398Z,78.20
2023-01-25T10:14:52.574Z,78.10
2023-01-25T10:17:41.894Z,78.10
2023-01-25T10:20:41.381Z,78.20
2023-01-25T10:23:24.426Z,78.30
2023-01-25T10:26:01.426Z,78.30
2023-01-25T10:28:42.271Z,78.40
2023-01-25T10:31:20.022Z,78.30
2023-01-25T10:33:49.246Z,78.30
2023-01-25T10:36:23.100Z,78.30
2023-01-25T10:38:50.441Z,78.30
2023-01-25T10:41:30.190Z,78.30
2023-01-25T10:44:20.226Z,78.40
2023-01-25T10:47:04.540Z,78.30
2023-01-25T10:49:47.019Z,78.30
2023-01-25T10:52:20.628Z,79.30
2023-01-25T10:54:52.421Z,78.40
2023-01-25T10:57:22.539Z,78.40
2023-01-25T10:59:52.876Z,78.30
2023-01-25T11:02:47.240Z,78.30
2023-01-25T11:05:29.617Z,78.20
2023-01-25T11:07:58.422Z,78.10
2023-01-25T11:10:35.790Z,78.10
2023-01-25T11:13:19.290Z,78.10
2023-01-25T11:16:13.708Z,78.20
2023-01-25T11:18:54.352Z,78.30
2023-01-25T11:21:25.596Z,78.50
2023-01-25T11:24:11.868Z,78.40
2023-01-25T11:26:40.854Z,78.50
2023-01-25T11:29:29.707Z,78.50
2023-01-25T11:31:57.715Z,78.50
2023-01-25T11:34:29.305Z,78.60
2023-01-25T11:37:54.694Z,78.80
2023-01-25T11:40:45.210Z,78.80
2023-01-25T11:43:38.360Z,78.60
2023-01-25T11:46:21.729Z,78.50
2023-01-25T11:49:53.229Z,78.60
2023-01-25T11:52:28.585Z,78.50
2023-01-25T11:55:43.193Z,78.20
2023-01-25T11:58:27.037Z,78.20
2023-01-25T12:01:46.862Z,78.30
2023-01-25T12:04:54.328Z,79.20
2023-01-25T12:07:45.857Z,78.50
2023-01-25T12:10:29.038Z,78.70
2023-01-25T12:13:20.756Z,78.60
2023-01-25T12:16:22.823Z,78.80
2023-01-25T12:19:39.552Z,78.90
2023-01-25T12:22:36.884Z,79.00
2023-01-25T12:25:19.071Z,79.20
2023-01-25T12:28:03.353Z,79.20
2023-01-25T12:30:48.562Z,79.90
2023-01-25T12:33:40.485Z,79.20
2023-01-25T12:36:32.103Z,79.40
2023-01-25T12:39:19.968Z,79.50
2023-01-25T12:42:08.953Z,79.40
2023-01-25T12:44:43.780Z,79.80
2023-01-25T12:47:10.573Z,79.70
2023-01-25T12:49:57.222Z,79.80
2023-01-25T12:52:46.063Z,79.90
2023-01-25T12:55:17.097Z,80.10
2023-01-25T12:57:55.823Z,80.00
2023-01-25T13:00:45.866Z,79.90
2023-01-25T13:03:30.683Z,79.60
2023-01-25T13:06:09.079Z,79.70
2023-01-25T13:09:07.914Z,79.80
2023-01-25T13:11:43.886Z,80.00
2023-01-25T13:14:16.905Z,79.90
2023-01-25T13:17:09.331Z,80.00
2023-01-25T13:19:36.864Z,80.00
2023-01-25T13:22:04.620Z,80.00
2023-01-25T13:24:34.208Z,80.20
2023-01-25T13:27:01.074Z,80.10
2023-01-25T13:29:36.609Z,80.00
2023-01-25T13:32:06.225Z,79.90
2023-01-25T13:34:36.195Z,80.20
2023-01-25T13:37:18.200Z,79.80
2023-01-25T13:39:49.740Z,79.70
2023-01-25T13:42:28.925Z,79.60
2023-01-25T13:45:14.367Z,79.70
2023-01-25T13:47:43.905Z,79.90
2023-01-25T13:50:27.258Z,79.90
2023-01-25T13:53:06.133Z,80.00
2023-01-25T13:55:44.178Z,80.10
2023-01-25T13:58:26.620Z,80.10
2023-01-25T14:00:55.414Z,80.20
2023-01-25T14:03:40.376Z,80.00
2023-01-25T14:06:15.751Z,80.10
2023-01-25T14:08:45.536Z,80.20
2023-01-25T14:11:29.796Z,80.20
2023-01-25T14:14:03.639Z,80.20
2023-01-25T14:16:31.987Z,80.20
2023-01-25T14:19:28.929Z,80.30
2023-01-25T14:22:19.943Z,80.50
2023-01-25T14:25:11.644Z,80.40
2023-01-25T14:27:54.959Z,80.40
2023-01-25T14:30:29.175Z,80.40
2023-01-25T14:33:02.860Z,80.50
2023-01-25T14:36:08.860Z,80.60
2023-01-25T14:38:37.821Z,80.60
2023-01-25T14:41:17.295Z,80.50
2023-01-25T14:43:56.358Z,80.70
2023-01-25T14:46:29.280Z,80.80
2023-01-25T14:49:17.693Z,80.70
2023-01-25T14:51:53.123Z,80.70
2023-01-25T14:54:26.875Z,80.60
2023-01-25T14:57:00.668Z,80.60
2023-01-25T14:59:39.186Z,80.60
2023-01-25T15:02:25.512Z,80.40
2023-01-25T15:05:15.233Z,80.40
2023-01-25T15:07:45.440Z,80.30
2023-01-25T15:10:24.152Z,80.30
2023-01-25T15:13:07.707Z,80.20
2023-01-25T15:16:01.259Z,80.20
2023-01-25T15:18:54.350Z,80.20
2023-01-25T15:21:25.947Z,80.20
2023-01-25T15:23:54.886Z,80.20
2023-01-25T15:26:31.378Z,80.30
2023-01-25T15:29:10.960Z,80.50
2023-01-25T15:31:38.775Z,80.70
2023-01-25T15:34:06.283Z,80.70
2023-01-25T15:36:33.838Z,81.00
2023-01-25T15:39:00.991Z,81.20
2023-01-25T15:41:27.834Z,81.50
2023-01-25T15:43:54.881Z,81.60
2023-01-25T15:46:25.370Z,81.50
2023-01-25T15:48:52.940Z,81.40
2023-01-25T15:51:20.321Z,81.50
2023-01-25T15:53:47.860Z,81.60
2023-01-25T15:56:32.631Z,81.60
2023-01-25T15:59:01.720Z,81.70
2023-01-25T16:01:30.209Z,81.60
2023-01-25T16:03:59.295Z,82.50
2023-01-25T16:06:42.873Z,81.70
2023-01-25T16:09:36.255Z,81.80
2023-01-25T16:12:03.325Z,81.90
2023-01-25T16:14:31.467Z,81.90
2023-01-25T16:17:02.894Z,81.80
2023-01-25T16:19:30.278Z,81.90
2023-01-25T16:21:57.357Z,81.80
2023-01-25T16:24:24.525Z,81.70
2023-01-25T16:26:55.465Z,81.90
2023-01-25T16:29:23.017Z,81.90
2023-01-25T16:31:51.027Z,81.70
2023-01-25T16:34:18.276Z,81.70
2023-01-25T16:36:50.161Z,81.70
2023-01-25T16:39:26.370Z,81.80
2023-01-25T16:41:54.057Z,81.80
2023-01-25T16:44:21.521Z,81.90
2023-01-25T16:46:50.043Z,81.80
2023-01-25T16:49:26.152Z,81.80
2023-01-25T16:51:54.476Z,81.90
2023-01-25T16:54:23.344Z,81.90
2023-01-25T16:56:52.163Z,81.80
2023-01-25T16:59:21.799Z,81.90
2023-01-25T17:01:49.385Z,81.90
2023-01-25T17:04:17.230Z,82.00
2023-01-25T17:06:48.449Z,82.20
2023-01-25T17:09:24.462Z,82.30
2023-01-25T17:11:53.423Z,82.20
2023-01-25T17:14:21.075Z,82.00
2023-01-25T17:16:51.240Z,82.10
2023-01-25T17:19:19.548Z,82.20
2023-01-25T17:21:47.266Z,82.10
2023-01-25T17:24:17.962Z,82.10
2023-01-25T17:26:45.152Z,82.10
2023-01-25T17:29:13.529Z,82.20
2023-01-25T17:31:42.048Z,82.30
2023-01-25T17:34:16.518Z,82.50
2023-01-25T17:36:44.463Z,82.50
2023-01-25T17:39:16.705Z,82.50
2023-01-25T17:41:49.102Z,82.20
2023-01-25T17:44:24.400Z,82.10
2023-01-25T17:46:51.909Z,82.10
2023-01-25T17:49:19.412Z,81.80
2023-01-25T17:51:46.995Z,81.70
2023-01-25T17:54:14.029Z,81.70
2023-01-25T17:56:40.876Z,81.70
2023-01-25T17:59:11.614Z,81.70
2023-01-25T18:01:42.650Z,81.70
2023-01-25T18:04:10.275Z,81.70
2023-01-25T18:06:37.532Z,81.70
2023-01-25T18:09:06.423Z,81.70
2023-01-25T18:11:36.733Z,81.70
2023-01-25T18:14:12.463Z,81.70
2023-01-25T18:16:41.375Z,81.70
2023-01-25T18:19:09.020Z,81.70
2023-01-25T18:21:37.347Z,81.70
2023-01-25T18:24:22.608Z,81.80
2023-01-25T18:26:51.326Z,81.80
2023-01-25T18:29:53.239Z,81.70
2023-01-25T18:32:20.403Z,82.00
2023-01-25T18:34:48.252Z,81.90
2023-01-25T18:37:20.289Z,82.00
2023-01-25T18:39:52.765Z,82.10
2023-01-25T18:42:21.789Z,82.30
2023-01-25T18:44:48.617Z,82.40
2023-01-25T18:47:21.087Z,82.50
2023-01-25T18:49:49.988Z,83.30
2023-01-25T18:52:19.928Z,82.60
2023-01-25T18:54:47.354Z,82.70
2023-01-25T18:57:15.737Z,82.70
2023-01-25T18:59:44.129Z,82.80
2023-01-25T19:02:14.473Z,82.80
2023-01-25T19:04:42.417Z,82.90
2023-01-25T19:07:09.550Z,82.90
2023-01-25T19:09:37.055Z,82.80
2023-01-25T19:12:05.089Z,82.90
2023-01-25T19:14:32.146Z,82.80
2023-01-25T19:16:59.252Z,82.80
2023-01-25T19:19:31.703Z,82.70
2023-01-25T19:21:59.731Z,82.50
2023-01-25T19:24:27.013Z,82.50
2023-01-25T19:26:56.586Z,82.40
2023-01-25T19:29:23.840Z,82.50
2023-01-25T19:31:50.882Z,82.50
2023-01-25T19:34:17.951Z,82.50
2023-01-25T19:36:53.862Z,82.40
2023-01-25T19:39:20.915Z,82.40
2023-01-25T19:41:47.746Z,83.10
2023-01-25T19:44:15.220Z,82.30
2023-01-25T19:46:42.841Z,82.20
2023-01-25T19:49:11.740Z,82.30
2023-01-25T19:51:42.212Z,82.50
2023-01-25T19:54:15.781Z,82.50
2023-01-25T19:56:48.503Z,82.60
2023-01-25T19:59:25.335Z,82.60
2023-01-25T20:01:52.407Z,82.70
2023-01-25T20:04:22.465Z,82.70
2023-01-25T20:06:51.107Z,82.70
2023-01-25T20:09:20.225Z,82.80
2023-01-25T20:11:47.622Z,82.80
2023-01-25T20:14:15.404Z,82.70
2023-01-25T20:16:42.763Z,82.60
2023-01-25T20:19:12.005Z,82.70
2023-01-25T20:21:39.625Z,82.70
2023-01-25T20:24:08.547Z,82.80
2023-01-25T20:26:38.944Z,82.80
2023-01-25T20:29:07.518Z,82.80
2023-01-25T20:31:37.013Z,83.40
2023-01-25T20:34:10.216Z,82.70
2023-01-25T20:36:37.517Z,82.70
2023-01-25T20:39:07.282Z,82.70
2023-01-25T20:41:35.035Z,82.70
2023-01-25T20:44:11.061Z,82.80
2023-01-25T20:46:41.470Z,82.90
2023-01-25T20:49:17.634Z,82.90
2023-01-25T20:51:45.601Z,83.00
2023-01-25T20:54:12.791Z,82.90
2023-01-25T20:56:40.435Z,82.90
2023-01-25T20:59:08.058Z,82.90
2023-01-25T21:01:37.271Z,83.00
2023-01-25T21:04:07.801Z,82.90
2023-01-25T21:06:35.227Z,82.80
2023-01-25T21:09:03.696Z,82.80
2023-01-25T21:11:31.111Z,82.70
2023-01-25T21:13:59.476Z,82.80
2023-01-25T21:16:26.947Z,82.80
2023-01-25T21:19:00.035Z,82.70
2023-01-25T21:21:30.583Z,82.50
2023-01-25T21:24:00.125Z,82.40
2023-01-25T21:26:33.753Z,82.50
2023-01-25T21:29:02.348Z,82.50
2023-01-25T21:31:35.388Z,82.50
2023-01-25T21:34:03.534Z,82.60
2023-01-25T21:36:30.753Z,82.60
2023-01-25T21:38:58.349Z,82.70
2023-01-25T21:41:29.941Z,82.70
2023-01-25T21:44:38.076Z,82.70
2023-01-25T21:47:30.032Z,82.70
2023-01-25T21:50:11.058Z,82.60
2023-01-25T21:52:38.154Z,82.70
2023-01-25T21:55:05.896Z,82.80
2023-01-25T21:57:32.914Z,82.80
2023-01-25T21:59:59.875Z,82.70
2023-01-25T22:02:27.022Z,82.70
2023-01-25T22:04:54.061Z,82.70
2023-01-25T22:07:21.009Z,82.70
2023-01-25T22:09:49.447Z,82.60
2023-01-25T22:12:16.561Z,82.60
2023-01-25T22:14:43.426Z,82.50
2023-01-25T22:17:10.422Z,82.50
2023-01-25T22:19:37.319Z,82.50
2023-01-25T22:22:04.344Z,82.50
2023-01-25T22:24:31.628Z,82.60
2023-01-25T22:27:32.665Z,82.70
2023-01-25T22:29:59.510Z,82.60
2023-01-25T22:32:26.526Z,82.60
2023-01-25T22:34:54.893Z,82.70
2023-01-25T22:37:22.086Z,82.80
2023-01-25T22:39:49.131Z,82.80
2023-01-25T22:42:16.080Z,82.80
2023-01-25T22:44:42.993Z,82.80
2023-01-25T22:47:10.022Z,82.90
2023-01-25T22:49:36.955Z,82.90
2023-01-25T22:52:03.956Z,82.80
2023-01-25T22:54:30.948Z,82.60
2023-01-25T22:56:59.620Z,82.50
2023-01-25T22:59:26.755Z,82.40
2023-01-25T23:01:53.779Z,82.40
2023-01-25T23:04:20.776Z,82.40
2023-01-25T23:06:47.735Z,82.30
2023-01-25T23:09:14.682Z,82.40
2023-01-25T23:11:41.698Z,83.10
2023-01-25T23:14:30.703Z,82.40
2023-01-25T23:17:18.023Z,82.40
2023-01-25T23:19:45.115Z,82.30
2023-01-25T23:22:12.107Z,82.30
2023-01-25T23:24:39.041Z,82.30
2023-01-25T23:27:06.030Z,82.40
2023-01-25T23:29:33.265Z,82.40
2023-01-25T23:32:00.435Z,82.30
2023-01-25T23:34:27.637Z,82.30
2023-01-25T23:36:54.588Z,82.30
2023-01-25T23:39:22.962Z,82.30
2023-01-25T23:41:51.761Z,82.40
2023-01-25T23:44:18.896Z,82.40
2023-01-25T23:46:46.346Z,82.50
2023-01-25T23:49:13.550Z,82.50
2023-01-25T23:51:40.593Z,82.50
2023-01-25T23:54:07.628Z,82.40
2023-01-25T23:56:34.712Z,82.30
2023-01-25T23:59:02.140Z,82.20
